sensor_id;sensor_type;location;lat;lon;timestamp;temperature;humidity
17639;DHT22;8938;53.546;9.954;2024-03-08T00:01:35;7.60;99.90
17639;DHT22;8938;53.546;9.954;2024-03-08T00:04:01;7.60;99.90
17639;DHT22;8938;53.546;9.954;2024-03-08T00:06:26;7.60;99.90
17639;DHT22;8938;53.546;9.954;2024-03-08T00:08:52;7.60;99.90
17639;DHT22;8938;53.546;9.954;2024-03-08T00:11:18;7.60;99.90
17639;DHT22;8938;53.546;9.954;2024-03-08T00:13:43;7.60;99.90
17639;DHT22;8938;53.546;9.954;2024-03-08T00:16:10;7.50;99.90
17639;DHT22;8938;53.546;9.954;2024-03-08T00:18:36;7.50;99.90
17639;DHT22;8938;53.546;9.954;2024-03-08T00:21:02;7.60;99.90
17639;DHT22;8938;53.546;9.954;2024-03-08T00:23:27;7.60;99.90
17639;DHT22;8938;53.546;9.954;2024-03-08T00:25:53;7.60;99.90
17639;DHT22;8938;53.546;9.954;2024-03-08T00:28:20;7.60;99.90
17639;DHT22;8938;53.546;9.954;2024-03-08T00:30:45;7.70;99.90
17639;DHT22;8938;53.546;9.954;2024-03-08T00:33:11;7.60;99.90
17639;DHT22;8938;53.546;9.954;2024-03-08T00:35:37;7.60;99.90
17639;DHT22;8938;53.546;9.954;2024-03-08T00:38:03;7.60;99.90
17639;DHT22;8938;53.546;9.954;2024-03-08T00:40:28;7.50;99.90
17639;DHT22;8938;53.546;9.954;2024-03-08T00:42:54;7.40;99.90
17639;DHT22;8938;53.546;9.954;2024-03-08T00:45:19;7.40;99.90
17639;DHT22;8938;53.546;9.954;2024-03-08T00:47:45;7.40;99.90
17639;DHT22;8938;53.546;9.954;2024-03-08T00:50:11;7.40;99.90
17639;DHT22;8938;53.546;9.954;2024-03-08T00:52:37;7.40;99.90
17639;DHT22;8938;53.546;9.954;2024-03-08T00:55:03;7.40;99.90
17639;DHT22;8938;53.546;9.954;2024-03-08T00:57:29;7.30;99.90
17639;DHT22;8938;53.546;9.954;2024-03-08T00:59:55;7.30;99.90
17639;DHT22;8938;53.546;9.954;2024-03-08T01:02:21;7.30;99.90
17639;DHT22;8938;53.546;9.954;2024-03-08T01:04:48;7.30;99.90
17639;DHT22;8938;53.546;9.954;2024-03-08T01:07:14;7.20;99.90
17639;DHT22;8938;53.546;9.954;2024-03-08T01:09:39;7.20;99.90
17639;DHT22;8938;53.546;9.954;2024-03-08T01:12:05;7.20;99.90
17639;DHT22;8938;53.546;9.954;2024-03-08T01:14:32;7.10;99.90
17639;DHT22;8938;53.546;9.954;2024-03-08T01:16:58;7.20;99.90
17639;DHT22;8938;53.546;9.954;2024-03-08T01:19:24;7.20;99.90
17639;DHT22;8938;53.546;9.954;2024-03-08T01:21:50;7.10;99.90
17639;DHT22;8938;53.546;9.954;2024-03-08T01:24:15;7.20;99.90
17639;DHT22;8938;53.546;9.954;2024-03-08T01:26:41;7.20;99.90
17639;DHT22;8938;53.546;9.954;2024-03-08T01:29:07;7.20;99.90
17639;DHT22;8938;53.546;9.954;2024-03-08T01:31:33;7.10;99.90
17639;DHT22;8938;53.546;9.954;2024-03-08T01:33:58;7.00;99.90
17639;DHT22;8938;53.546;9.954;2024-03-08T01:36:24;7.00;99.90
17639;DHT22;8938;53.546;9.954;2024-03-08T01:38:50;6.90;99.90
17639;DHT22;8938;53.546;9.954;2024-03-08T01:41:16;6.90;99.90
17639;DHT22;8938;53.546;9.954;2024-03-08T01:43:43;6.90;99.90
17639;DHT22;8938;53.546;9.954;2024-03-08T01:46:09;6.90;99.90
17639;DHT22;8938;53.546;9.954;2024-03-08T01:48:35;6.90;99.90
17639;DHT22;8938;53.546;9.954;2024-03-08T01:51:01;6.80;99.90
17639;DHT22;8938;53.546;9.954;2024-03-08T01:53:29;6.80;99.90
17639;DHT22;8938;53.546;9.954;2024-03-08T01:55:57;6.90;99.90
17639;DHT22;8938;53.546;9.954;2024-03-08T01:58:23;6.90;99.90
17639;DHT22;8938;53.546;9.954;2024-03-08T02:00:50;6.90;99.90
17639;DHT22;8938;53.546;9.954;2024-03-08T02:03:16;6.90;99.90
17639;DHT22;8938;53.546;9.954;2024-03-08T02:05:42;6.90;99.90
17639;DHT22;8938;53.546;9.954;2024-03-08T02:08:08;6.80;99.90
17639;DHT22;8938;53.546;9.954;2024-03-08T02:10:38;6.80;99.90
17639;DHT22;8938;53.546;9.954;2024-03-08T02:13:04;6.80;99.90
17639;DHT22;8938;53.546;9.954;2024-03-08T02:18:21;6.70;99.90
17639;DHT22;8938;53.546;9.954;2024-03-08T02:20:48;6.70;99.90
17639;DHT22;8938;53.546;9.954;2024-03-08T02:23:14;6.60;99.90
17639;DHT22;8938;53.546;9.954;2024-03-08T02:25:40;6.60;99.90
17639;DHT22;8938;53.546;9.954;2024-03-08T02:28:09;6.70;99.90
17639;DHT22;8938;53.546;9.954;2024-03-08T02:30:35;6.70;99.90
17639;DHT22;8938;53.546;9.954;2024-03-08T02:33:01;6.70;99.90
17639;DHT22;8938;53.546;9.954;2024-03-08T02:35:26;6.70;99.90
17639;DHT22;8938;53.546;9.954;2024-03-08T02:37:52;6.70;99.90
17639;DHT22;8938;53.546;9.954;2024-03-08T02:40:17;6.70;99.90
17639;DHT22;8938;53.546;9.954;2024-03-08T02:42:43;6.60;99.90
17639;DHT22;8938;53.546;9.954;2024-03-08T02:45:08;6.60;99.90
17639;DHT22;8938;53.546;9.954;2024-03-08T02:47:35;6.60;99.90
17639;DHT22;8938;53.546;9.954;2024-03-08T02:50:01;6.60;99.90
17639;DHT22;8938;53.546;9.954;2024-03-08T02:52:27;6.70;99.90
17639;DHT22;8938;53.546;9.954;2024-03-08T02:54:52;6.70;99.90
17639;DHT22;8938;53.546;9.954;2024-03-08T02:57:18;6.70;99.90
17639;DHT22;8938;53.546;9.954;2024-03-08T02:59:44;6.60;99.90
17639;DHT22;8938;53.546;9.954;2024-03-08T03:02:11;6.60;99.90
17639;DHT22;8938;53.546;9.954;2024-03-08T03:04:40;6.60;99.90
17639;DHT22;8938;53.546;9.954;2024-03-08T03:07:08;6.50;99.90
17639;DHT22;8938;53.546;9.954;2024-03-08T03:09:34;6.50;99.90
17639;DHT22;8938;53.546;9.954;2024-03-08T03:11:59;6.40;99.90
17639;DHT22;8938;53.546;9.954;2024-03-08T03:14:25;6.30;99.90
17639;DHT22;8938;53.546;9.954;2024-03-08T03:16:52;6.30;99.90
17639;DHT22;8938;53.546;9.954;2024-03-08T03:19:18;6.30;99.90
17639;DHT22;8938;53.546;9.954;2024-03-08T03:21:43;6.30;99.90
17639;DHT22;8938;53.546;9.954;2024-03-08T03:24:09;6.40;99.90
17639;DHT22;8938;53.546;9.954;2024-03-08T03:26:38;6.40;99.90
17639;DHT22;8938;53.546;9.954;2024-03-08T03:29:07;6.40;99.90
17639;DHT22;8938;53.546;9.954;2024-03-08T03:31:34;6.40;99.90
17639;DHT22;8938;53.546;9.954;2024-03-08T03:34:00;6.40;99.90
17639;DHT22;8938;53.546;9.954;2024-03-08T03:36:28;6.40;99.90
17639;DHT22;8938;53.546;9.954;2024-03-08T03:38:54;6.30;99.90
17639;DHT22;8938;53.546;9.954;2024-03-08T03:41:30;6.20;99.90
17639;DHT22;8938;53.546;9.954;2024-03-08T03:43:56;6.20;99.90
17639;DHT22;8938;53.546;9.954;2024-03-08T03:46:21;6.10;99.90
17639;DHT22;8938;53.546;9.954;2024-03-08T03:48:47;6.10;99.90
17639;DHT22;8938;53.546;9.954;2024-03-08T03:51:12;6.10;99.90
17639;DHT22;8938;53.546;9.954;2024-03-08T03:53:40;6.10;99.90
17639;DHT22;8938;53.546;9.954;2024-03-08T03:56:06;6.10;99.90
17639;DHT22;8938;53.546;9.954;2024-03-08T03:58:32;6.10;99.90
17639;DHT22;8938;53.546;9.954;2024-03-08T04:00:58;6.10;99.90
17639;DHT22;8938;53.546;9.954;2024-03-08T04:03:24;6.10;99.90
17639;DHT22;8938;53.546;9.954;2024-03-08T04:05:49;6.10;99.90
17639;DHT22;8938;53.546;9.954;2024-03-08T04:08:16;6.10;99.90
17639;DHT22;8938;53.546;9.954;2024-03-08T04:10:42;6.00;99.90
17639;DHT22;8938;53.546;9.954;2024-03-08T04:13:08;6.00;99.90
17639;DHT22;8938;53.546;9.954;2024-03-08T04:15:35;6.00;99.90
17639;DHT22;8938;53.546;9.954;2024-03-08T04:18:00;6.00;99.90
17639;DHT22;8938;53.546;9.954;2024-03-08T04:20:26;6.10;99.90
17639;DHT22;8938;53.546;9.954;2024-03-08T04:22:51;6.10;99.90
17639;DHT22;8938;53.546;9.954;2024-03-08T04:25:17;6.10;99.90
17639;DHT22;8938;53.546;9.954;2024-03-08T04:27:42;6.10;99.90
17639;DHT22;8938;53.546;9.954;2024-03-08T04:30:10;6.00;99.90
17639;DHT22;8938;53.546;9.954;2024-03-08T04:32:35;6.00;99.90
17639;DHT22;8938;53.546;9.954;2024-03-08T04:35:01;5.90;99.90
17639;DHT22;8938;53.546;9.954;2024-03-08T04:37:27;6.00;99.90
17639;DHT22;8938;53.546;9.954;2024-03-08T04:39:55;6.00;99.90
17639;DHT22;8938;53.546;9.954;2024-03-08T04:42:20;6.00;99.90
17639;DHT22;8938;53.546;9.954;2024-03-08T04:44:46;5.90;99.90
17639;DHT22;8938;53.546;9.954;2024-03-08T04:47:12;5.90;99.90
17639;DHT22;8938;53.546;9.954;2024-03-08T04:49:38;5.90;99.90
17639;DHT22;8938;53.546;9.954;2024-03-08T04:52:03;5.80;99.90
17639;DHT22;8938;53.546;9.954;2024-03-08T04:54:30;5.80;99.90
17639;DHT22;8938;53.546;9.954;2024-03-08T04:56:56;5.80;99.90
17639;DHT22;8938;53.546;9.954;2024-03-08T04:59:21;5.90;99.90
17639;DHT22;8938;53.546;9.954;2024-03-08T05:01:47;5.90;99.90
17639;DHT22;8938;53.546;9.954;2024-03-08T05:04:13;5.90;99.90
17639;DHT22;8938;53.546;9.954;2024-03-08T05:06:39;6.00;99.90
17639;DHT22;8938;53.546;9.954;2024-03-08T05:09:04;5.90;99.90
17639;DHT22;8938;53.546;9.954;2024-03-08T05:11:41;5.90;99.90
17639;DHT22;8938;53.546;9.954;2024-03-08T05:14:06;5.90;99.90
17639;DHT22;8938;53.546;9.954;2024-03-08T05:16:32;5.90;99.90
17639;DHT22;8938;53.546;9.954;2024-03-08T05:18:57;5.80;99.90
17639;DHT22;8938;53.546;9.954;2024-03-08T05:21:23;5.80;99.90
17639;DHT22;8938;53.546;9.954;2024-03-08T05:23:49;5.80;99.90
17639;DHT22;8938;53.546;9.954;2024-03-08T05:26:15;5.70;99.90
17639;DHT22;8938;53.546;9.954;2024-03-08T05:28:41;5.70;99.90
17639;DHT22;8938;53.546;9.954;2024-03-08T05:31:07;5.80;99.90
17639;DHT22;8938;53.546;9.954;2024-03-08T05:33:33;5.80;99.90
17639;DHT22;8938;53.546;9.954;2024-03-08T05:36:02;5.90;99.90
17639;DHT22;8938;53.546;9.954;2024-03-08T05:38:28;5.90;99.90
17639;DHT22;8938;53.546;9.954;2024-03-08T05:40:54;5.80;99.90
17639;DHT22;8938;53.546;9.954;2024-03-08T05:43:20;5.80;99.90
17639;DHT22;8938;53.546;9.954;2024-03-08T05:45:46;5.80;99.90
17639;DHT22;8938;53.546;9.954;2024-03-08T05:48:12;5.80;99.90
17639;DHT22;8938;53.546;9.954;2024-03-08T05:50:38;5.90;99.90
17639;DHT22;8938;53.546;9.954;2024-03-08T05:53:04;5.90;99.90
17639;DHT22;8938;53.546;9.954;2024-03-08T05:55:32;5.80;99.90
17639;DHT22;8938;53.546;9.954;2024-03-08T05:58:00;5.80;99.90
17639;DHT22;8938;53.546;9.954;2024-03-08T06:00:26;5.80;99.90
17639;DHT22;8938;53.546;9.954;2024-03-08T06:02:52;5.70;99.90
17639;DHT22;8938;53.546;9.954;2024-03-08T06:05:18;5.70;99.90
17639;DHT22;8938;53.546;9.954;2024-03-08T06:07:43;5.70;99.90
17639;DHT22;8938;53.546;9.954;2024-03-08T06:10:10;5.80;99.90
17639;DHT22;8938;53.546;9.954;2024-03-08T06:12:36;5.80;99.90
17639;DHT22;8938;53.546;9.954;2024-03-08T06:15:09;5.80;99.90
17639;DHT22;8938;53.546;9.954;2024-03-08T06:17:36;5.80;99.90
17639;DHT22;8938;53.546;9.954;2024-03-08T06:20:02;5.90;99.90
17639;DHT22;8938;53.546;9.954;2024-03-08T06:22:29;5.90;99.90
17639;DHT22;8938;53.546;9.954;2024-03-08T06:24:56;5.90;99.90
17639;DHT22;8938;53.546;9.954;2024-03-08T06:27:21;5.90;99.90
17639;DHT22;8938;53.546;9.954;2024-03-08T06:29:47;5.90;99.90
17639;DHT22;8938;53.546;9.954;2024-03-08T06:32:14;5.90;99.90
17639;DHT22;8938;53.546;9.954;2024-03-08T06:34:41;5.80;99.90
17639;DHT22;8938;53.546;9.954;2024-03-08T06:37:06;5.80;99.90
17639;DHT22;8938;53.546;9.954;2024-03-08T06:39:32;5.80;99.90
17639;DHT22;8938;53.546;9.954;2024-03-08T06:41:57;5.90;99.90
17639;DHT22;8938;53.546;9.954;2024-03-08T06:44:23;5.90;99.90
17639;DHT22;8938;53.546;9.954;2024-03-08T06:46:49;5.90;99.90
17639;DHT22;8938;53.546;9.954;2024-03-08T06:49:14;6.00;99.90
17639;DHT22;8938;53.546;9.954;2024-03-08T06:51:41;6.00;99.90
17639;DHT22;8938;53.546;9.954;2024-03-08T06:54:07;6.00;99.90
17639;DHT22;8938;53.546;9.954;2024-03-08T06:56:34;6.10;99.90
17639;DHT22;8938;53.546;9.954;2024-03-08T06:58:59;6.10;99.90
17639;DHT22;8938;53.546;9.954;2024-03-08T07:01:25;6.10;99.90
17639;DHT22;8938;53.546;9.954;2024-03-08T07:03:51;6.20;99.90
17639;DHT22;8938;53.546;9.954;2024-03-08T07:06:18;6.20;99.90
17639;DHT22;8938;53.546;9.954;2024-03-08T07:08:45;6.20;99.90
17639;DHT22;8938;53.546;9.954;2024-03-08T07:11:11;6.30;99.90
17639;DHT22;8938;53.546;9.954;2024-03-08T07:13:37;6.30;99.90
17639;DHT22;8938;53.546;9.954;2024-03-08T07:16:04;6.40;99.90
17639;DHT22;8938;53.546;9.954;2024-03-08T07:18:30;6.40;99.90
17639;DHT22;8938;53.546;9.954;2024-03-08T07:20:56;6.50;99.90
17639;DHT22;8938;53.546;9.954;2024-03-08T07:23:22;6.60;99.90
17639;DHT22;8938;53.546;9.954;2024-03-08T07:26:23;6.60;99.90
17639;DHT22;8938;53.546;9.954;2024-03-08T07:28:48;6.50;99.90
17639;DHT22;8938;53.546;9.954;2024-03-08T07:31:14;6.50;99.90
17639;DHT22;8938;53.546;9.954;2024-03-08T07:33:42;6.50;99.90
17639;DHT22;8938;53.546;9.954;2024-03-08T07:36:08;6.70;99.90
17639;DHT22;8938;53.546;9.954;2024-03-08T07:38:33;6.70;99.90
17639;DHT22;8938;53.546;9.954;2024-03-08T07:41:00;6.70;99.90
17639;DHT22;8938;53.546;9.954;2024-03-08T07:43:26;6.70;99.90
17639;DHT22;8938;53.546;9.954;2024-03-08T07:45:51;6.80;99.90
17639;DHT22;8938;53.546;9.954;2024-03-08T07:48:18;6.80;99.90
17639;DHT22;8938;53.546;9.954;2024-03-08T07:50:44;6.90;99.90
17639;DHT22;8938;53.546;9.954;2024-03-08T07:53:09;6.90;99.90
17639;DHT22;8938;53.546;9.954;2024-03-08T07:55:35;7.00;99.90
17639;DHT22;8938;53.546;9.954;2024-03-08T07:58:05;7.00;99.90
17639;DHT22;8938;53.546;9.954;2024-03-08T08:00:30;7.00;99.90
17639;DHT22;8938;53.546;9.954;2024-03-08T08:02:58;7.10;99.90
17639;DHT22;8938;53.546;9.954;2024-03-08T08:05:24;7.10;99.90
17639;DHT22;8938;53.546;9.954;2024-03-08T08:07:49;7.10;99.90
17639;DHT22;8938;53.546;9.954;2024-03-08T08:10:17;7.10;99.90
17639;DHT22;8938;53.546;9.954;2024-03-08T08:12:50;7.20;99.90
17639;DHT22;8938;53.546;9.954;2024-03-08T08:15:16;7.20;99.90
17639;DHT22;8938;53.546;9.954;2024-03-08T08:17:43;7.30;99.90
17639;DHT22;8938;53.546;9.954;2024-03-08T08:20:10;7.30;99.90
17639;DHT22;8938;53.546;9.954;2024-03-08T08:22:37;7.50;99.90
17639;DHT22;8938;53.546;9.954;2024-03-08T08:25:04;7.50;99.90
17639;DHT22;8938;53.546;9.954;2024-03-08T08:27:29;7.60;99.90
17639;DHT22;8938;53.546;9.954;2024-03-08T08:29:55;7.60;99.90
17639;DHT22;8938;53.546;9.954;2024-03-08T08:32:21;7.70;99.90
17639;DHT22;8938;53.546;9.954;2024-03-08T08:34:47;7.60;99.90
17639;DHT22;8938;53.546;9.954;2024-03-08T08:37:13;7.60;99.90
17639;DHT22;8938;53.546;9.954;2024-03-08T08:39:38;7.60;99.90
17639;DHT22;8938;53.546;9.954;2024-03-08T08:42:04;7.60;99.90
17639;DHT22;8938;53.546;9.954;2024-03-08T08:44:30;7.70;99.90
17639;DHT22;8938;53.546;9.954;2024-03-08T08:46:57;7.70;99.90
17639;DHT22;8938;53.546;9.954;2024-03-08T08:49:22;7.80;99.90
17639;DHT22;8938;53.546;9.954;2024-03-08T08:51:52;7.90;99.90
17639;DHT22;8938;53.546;9.954;2024-03-08T08:54:18;7.90;99.90
17639;DHT22;8938;53.546;9.954;2024-03-08T08:56:44;8.00;99.90
17639;DHT22;8938;53.546;9.954;2024-03-08T08:59:10;8.10;99.90
17639;DHT22;8938;53.546;9.954;2024-03-08T09:01:39;8.10;99.90
17639;DHT22;8938;53.546;9.954;2024-03-08T09:04:05;8.10;99.90
17639;DHT22;8938;53.546;9.954;2024-03-08T09:06:30;8.20;99.90
17639;DHT22;8938;53.546;9.954;2024-03-08T09:08:56;8.20;99.90
17639;DHT22;8938;53.546;9.954;2024-03-08T09:11:21;8.20;99.90
17639;DHT22;8938;53.546;9.954;2024-03-08T09:13:47;8.30;99.90
17639;DHT22;8938;53.546;9.954;2024-03-08T09:16:14;8.40;99.90
17639;DHT22;8938;53.546;9.954;2024-03-08T09:18:40;8.60;99.90
17639;DHT22;8938;53.546;9.954;2024-03-08T09:21:07;8.70;99.90
17639;DHT22;8938;53.546;9.954;2024-03-08T09:23:38;8.70;99.90
17639;DHT22;8938;53.546;9.954;2024-03-08T09:26:03;8.70;99.90
17639;DHT22;8938;53.546;9.954;2024-03-08T09:28:29;8.80;99.90
17639;DHT22;8938;53.546;9.954;2024-03-08T09:30:55;9.10;99.90
17639;DHT22;8938;53.546;9.954;2024-03-08T09:33:21;10.00;99.90
17639;DHT22;8938;53.546;9.954;2024-03-08T09:35:47;10.90;99.90
17639;DHT22;8938;53.546;9.954;2024-03-08T09:38:13;11.70;99.20
17639;DHT22;8938;53.546;9.954;2024-03-08T09:40:43;12.30;98.80
17639;DHT22;8938;53.546;9.954;2024-03-08T09:43:09;12.80;96.90
17639;DHT22;8938;53.546;9.954;2024-03-08T09:45:37;12.50;96.50
17639;DHT22;8938;53.546;9.954;2024-03-08T09:48:10;12.10;96.80
17639;DHT22;8938;53.546;9.954;2024-03-08T09:50:38;12.00;97.50
17639;DHT22;8938;53.546;9.954;2024-03-08T09:53:04;12.10;97.00
17639;DHT22;8938;53.546;9.954;2024-03-08T09:55:35;12.10;96.70
17639;DHT22;8938;53.546;9.954;2024-03-08T09:58:06;11.90;96.80
17639;DHT22;8938;53.546;9.954;2024-03-08T10:00:42;11.70;96.60
17639;DHT22;8938;53.546;9.954;2024-03-08T10:03:07;11.40;96.80
17639;DHT22;8938;53.546;9.954;2024-03-08T10:05:34;11.10;96.80
17639;DHT22;8938;53.546;9.954;2024-03-08T10:07:59;11.10;97.30
17639;DHT22;8938;53.546;9.954;2024-03-08T10:10:25;10.90;97.60
17639;DHT22;8938;53.546;9.954;2024-03-08T10:12:51;11.00;97.50
17639;DHT22;8938;53.546;9.954;2024-03-08T10:15:17;10.90;96.90
17639;DHT22;8938;53.546;9.954;2024-03-08T10:17:43;10.70;97.10
17639;DHT22;8938;53.546;9.954;2024-03-08T10:20:18;10.70;97.40
17639;DHT22;8938;53.546;9.954;2024-03-08T10:22:44;10.70;97.50
17639;DHT22;8938;53.546;9.954;2024-03-08T10:25:11;10.50;97.20
17639;DHT22;8938;53.546;9.954;2024-03-08T10:27:38;10.50;97.30
17639;DHT22;8938;53.546;9.954;2024-03-08T10:30:07;10.50;97.70
17639;DHT22;8938;53.546;9.954;2024-03-08T10:32:35;10.70;98.00
17639;DHT22;8938;53.546;9.954;2024-03-08T10:35:01;10.90;96.90
17639;DHT22;8938;53.546;9.954;2024-03-08T10:37:27;10.80;97.10
17639;DHT22;8938;53.546;9.954;2024-03-08T10:40:03;10.70;97.00
17639;DHT22;8938;53.546;9.954;2024-03-08T10:42:40;10.50;96.90
17639;DHT22;8938;53.546;9.954;2024-03-08T10:45:15;10.30;97.10
17639;DHT22;8938;53.546;9.954;2024-03-08T10:47:49;10.20;97.40
17639;DHT22;8938;53.546;9.954;2024-03-08T10:50:19;10.10;97.50
17639;DHT22;8938;53.546;9.954;2024-03-08T10:52:52;10.10;97.50
17639;DHT22;8938;53.546;9.954;2024-03-08T10:55:18;10.20;97.10
17639;DHT22;8938;53.546;9.954;2024-03-08T10:57:46;10.10;96.70
17639;DHT22;8938;53.546;9.954;2024-03-08T11:00:13;10.10;97.10
17639;DHT22;8938;53.546;9.954;2024-03-08T11:05:10;10.20;96.60
17639;DHT22;8938;53.546;9.954;2024-03-08T11:07:42;10.20;96.70
17639;DHT22;8938;53.546;9.954;2024-03-08T11:10:19;10.10;96.70
17639;DHT22;8938;53.546;9.954;2024-03-08T11:12:45;10.00;97.10
17639;DHT22;8938;53.546;9.954;2024-03-08T11:15:13;9.90;97.40
17639;DHT22;8938;53.546;9.954;2024-03-08T11:17:50;10.00;97.40
17639;DHT22;8938;53.546;9.954;2024-03-08T11:20:17;10.10;97.40
17639;DHT22;8938;53.546;9.954;2024-03-08T11:23:00;10.20;96.90
17639;DHT22;8938;53.546;9.954;2024-03-08T11:25:38;10.20;96.70
17639;DHT22;8938;53.546;9.954;2024-03-08T11:28:19;10.20;96.60
17639;DHT22;8938;53.546;9.954;2024-03-08T11:30:45;10.20;96.80
17639;DHT22;8938;53.546;9.954;2024-03-08T11:33:14;10.10;96.80
17639;DHT22;8938;53.546;9.954;2024-03-08T11:35:42;10.00;96.60
17639;DHT22;8938;53.546;9.954;2024-03-08T11:38:10;10.10;97.10
17639;DHT22;8938;53.546;9.954;2024-03-08T11:40:36;10.30;97.10
17639;DHT22;8938;53.546;9.954;2024-03-08T11:43:01;10.50;96.60
17639;DHT22;8938;53.546;9.954;2024-03-08T11:45:33;10.60;96.40
17639;DHT22;8938;53.546;9.954;2024-03-08T11:48:02;10.50;96.40
17639;DHT22;8938;53.546;9.954;2024-03-08T11:50:29;10.60;96.40
17639;DHT22;8938;53.546;9.954;2024-03-08T11:53:03;10.60;96.70
17639;DHT22;8938;53.546;9.954;2024-03-08T11:55:32;10.70;96.10
17639;DHT22;8938;53.546;9.954;2024-03-08T11:58:04;10.60;96.20
17639;DHT22;8938;53.546;9.954;2024-03-08T12:00:31;10.70;95.90
17639;DHT22;8938;53.546;9.954;2024-03-08T12:03:07;10.60;96.10
17639;DHT22;8938;53.546;9.954;2024-03-08T12:05:35;10.80;95.90
17639;DHT22;8938;53.546;9.954;2024-03-08T12:08:04;10.90;95.50
17639;DHT22;8938;53.546;9.954;2024-03-08T12:10:32;11.00;95.30
17639;DHT22;8938;53.546;9.954;2024-03-08T12:12:58;11.00;95.40
17639;DHT22;8938;53.546;9.954;2024-03-08T12:15:29;10.90;95.70
17639;DHT22;8938;53.546;9.954;2024-03-08T12:17:55;10.80;95.80
17639;DHT22;8938;53.546;9.954;2024-03-08T12:20:22;10.80;95.70
17639;DHT22;8938;53.546;9.954;2024-03-08T12:22:49;10.90;96.00
17639;DHT22;8938;53.546;9.954;2024-03-08T12:25:15;11.00;96.00
17639;DHT22;8938;53.546;9.954;2024-03-08T12:27:42;11.10;96.10
17639;DHT22;8938;53.546;9.954;2024-03-08T12:30:21;11.20;95.50
17639;DHT22;8938;53.546;9.954;2024-03-08T12:32:52;11.20;95.50
17639;DHT22;8938;53.546;9.954;2024-03-08T12:35:28;11.40;95.00
17639;DHT22;8938;53.546;9.954;2024-03-08T12:37:56;11.40;95.10
17639;DHT22;8938;53.546;9.954;2024-03-08T12:40:29;11.30;95.20
17639;DHT22;8938;53.546;9.954;2024-03-08T12:42:57;11.40;95.40
17639;DHT22;8938;53.546;9.954;2024-03-08T12:45:23;11.60;95.70
17639;DHT22;8938;53.546;9.954;2024-03-08T12:47:50;11.80;95.20
17639;DHT22;8938;53.546;9.954;2024-03-08T12:50:16;12.00;94.90
17639;DHT22;8938;53.546;9.954;2024-03-08T12:52:42;12.30;94.70
17639;DHT22;8938;53.546;9.954;2024-03-08T12:55:08;12.50;94.60
17639;DHT22;8938;53.546;9.954;2024-03-08T12:57:34;12.70;94.00
17639;DHT22;8938;53.546;9.954;2024-03-08T13:00:01;12.70;93.50
17639;DHT22;8938;53.546;9.954;2024-03-08T13:02:28;12.60;93.70
17639;DHT22;8938;53.546;9.954;2024-03-08T13:04:54;12.60;93.90
17639;DHT22;8938;53.546;9.954;2024-03-08T13:07:26;12.80;94.20
17639;DHT22;8938;53.546;9.954;2024-03-08T13:09:55;13.10;94.00
17639;DHT22;8938;53.546;9.954;2024-03-08T13:12:22;13.20;93.80
17639;DHT22;8938;53.546;9.954;2024-03-08T13:14:49;13.30;93.50
17639;DHT22;8938;53.546;9.954;2024-03-08T13:17:15;13.20;92.80
17639;DHT22;8938;53.546;9.954;2024-03-08T13:19:41;12.90;92.30
17639;DHT22;8938;53.546;9.954;2024-03-08T13:22:10;12.60;92.20
17639;DHT22;8938;53.546;9.954;2024-03-08T13:24:42;12.50;92.40
17639;DHT22;8938;53.546;9.954;2024-03-08T13:27:08;12.40;92.80
17639;DHT22;8938;53.546;9.954;2024-03-08T13:29:48;12.50;93.40
17639;DHT22;8938;53.546;9.954;2024-03-08T13:32:15;12.80;92.90
17639;DHT22;8938;53.546;9.954;2024-03-08T13:34:43;12.80;92.50
17639;DHT22;8938;53.546;9.954;2024-03-08T13:37:10;12.70;92.30
17639;DHT22;8938;53.546;9.954;2024-03-08T13:39:37;13.00;93.00
17639;DHT22;8938;53.546;9.954;2024-03-08T13:42:10;13.40;92.10
17639;DHT22;8938;53.546;9.954;2024-03-08T13:44:47;13.30;92.00
17639;DHT22;8938;53.546;9.954;2024-03-08T13:47:16;13.10;92.00
17639;DHT22;8938;53.546;9.954;2024-03-08T13:49:42;13.10;92.00
17639;DHT22;8938;53.546;9.954;2024-03-08T13:52:09;13.10;92.30
17639;DHT22;8938;53.546;9.954;2024-03-08T13:54:35;13.20;92.00
17639;DHT22;8938;53.546;9.954;2024-03-08T13:57:01;13.20;92.00
17639;DHT22;8938;53.546;9.954;2024-03-08T14:01:56;13.20;91.50
17639;DHT22;8938;53.546;9.954;2024-03-08T14:04:22;13.10;91.70
17639;DHT22;8938;53.546;9.954;2024-03-08T14:06:48;12.90;92.50
17639;DHT22;8938;53.546;9.954;2024-03-08T14:09:14;13.00;92.50
17639;DHT22;8938;53.546;9.954;2024-03-08T14:11:43;13.00;92.70
17639;DHT22;8938;53.546;9.954;2024-03-08T14:14:10;13.20;92.30
17639;DHT22;8938;53.546;9.954;2024-03-08T14:16:40;13.30;92.20
17639;DHT22;8938;53.546;9.954;2024-03-08T14:19:06;13.30;92.30
17639;DHT22;8938;53.546;9.954;2024-03-08T14:21:32;13.30;92.10
17639;DHT22;8938;53.546;9.954;2024-03-08T14:23:58;13.30;92.00
17639;DHT22;8938;53.546;9.954;2024-03-08T14:26:24;13.40;91.70
17639;DHT22;8938;53.546;9.954;2024-03-08T14:28:49;13.40;91.70
17639;DHT22;8938;53.546;9.954;2024-03-08T14:31:20;13.40;91.60
17639;DHT22;8938;53.546;9.954;2024-03-08T14:33:45;13.40;91.20
17639;DHT22;8938;53.546;9.954;2024-03-08T14:36:14;13.30;90.70
17639;DHT22;8938;53.546;9.954;2024-03-08T14:38:42;13.20;90.90
17639;DHT22;8938;53.546;9.954;2024-03-08T14:41:08;13.00;90.40
17639;DHT22;8938;53.546;9.954;2024-03-08T14:43:34;12.80;90.90
17639;DHT22;8938;53.546;9.954;2024-03-08T14:45:59;12.70;91.20
17639;DHT22;8938;53.546;9.954;2024-03-08T14:48:25;12.70;91.40
17639;DHT22;8938;53.546;9.954;2024-03-08T14:53:17;12.70;91.40
17639;DHT22;8938;53.546;9.954;2024-03-08T14:55:43;12.90;91.50
17639;DHT22;8938;53.546;9.954;2024-03-08T14:58:12;12.90;90.80
17639;DHT22;8938;53.546;9.954;2024-03-08T15:00:38;12.80;91.10
17639;DHT22;8938;53.546;9.954;2024-03-08T15:03:05;12.70;91.20
17639;DHT22;8938;53.546;9.954;2024-03-08T15:05:32;12.60;91.10
17639;DHT22;8938;53.546;9.954;2024-03-08T15:08:01;12.70;91.40
17639;DHT22;8938;53.546;9.954;2024-03-08T15:10:28;12.70;91.30
17639;DHT22;8938;53.546;9.954;2024-03-08T15:12:54;12.80;91.20
17639;DHT22;8938;53.546;9.954;2024-03-08T15:15:21;12.90;91.20
17639;DHT22;8938;53.546;9.954;2024-03-08T15:17:48;13.10;91.30
17639;DHT22;8938;53.546;9.954;2024-03-08T15:20:14;13.10;91.10
17639;DHT22;8938;53.546;9.954;2024-03-08T15:22:50;13.10;90.50
17639;DHT22;8938;53.546;9.954;2024-03-08T15:25:16;13.10;90.50
17639;DHT22;8938;53.546;9.954;2024-03-08T15:27:54;13.10;90.60
17639;DHT22;8938;53.546;9.954;2024-03-08T15:30:21;13.10;90.70
17639;DHT22;8938;53.546;9.954;2024-03-08T15:35:25;13.10;90.40
17639;DHT22;8938;53.546;9.954;2024-03-08T15:37:51;13.00;90.80
17639;DHT22;8938;53.546;9.954;2024-03-08T15:40:18;12.90;91.00
17639;DHT22;8938;53.546;9.954;2024-03-08T15:43:04;12.90;91.00
17639;DHT22;8938;53.546;9.954;2024-03-08T15:45:30;12.70;90.90
17639;DHT22;8938;53.546;9.954;2024-03-08T15:47:56;12.60;90.90
17639;DHT22;8938;53.546;9.954;2024-03-08T15:50:22;12.50;91.30
17639;DHT22;8938;53.546;9.954;2024-03-08T15:52:49;12.40;91.30
17639;DHT22;8938;53.546;9.954;2024-03-08T15:55:19;12.30;91.60
17639;DHT22;8938;53.546;9.954;2024-03-08T15:57:49;12.30;91.50
17639;DHT22;8938;53.546;9.954;2024-03-08T16:00:16;12.20;91.50
17639;DHT22;8938;53.546;9.954;2024-03-08T16:02:58;12.30;91.50
17639;DHT22;8938;53.546;9.954;2024-03-08T16:07:52;12.10;91.40
17639;DHT22;8938;53.546;9.954;2024-03-08T16:10:17;12.00;91.60